sensor_id;sensor_type;location;lat;lon;timestamp;pressure;altitude;pressure_sealevel;temperature;humidity
60307;BME280;46155;52.364;6.580;2023-01-29T04:01:39;102614.88;;;2.02;100.00
60307;BME280;46155;52.364;6.580;2023-01-29T04:04:23;102607.47;;;2.05;100.00
60307;BME280;46155;52.364;6.580;2023-01-29T04:06:50;102599.34;;;2.02;100.00
60307;BME280;46155;52.364;6.580;2023-01-29T04:09:41;102599.94;;;2.07;100.00
60307;BME280;46155;52.364;6.580;2023-01-29T04:12:13;102605.31;;;2.09;100.00
60307;BME280;46155;52.364;6.580;2023-01-29T04:14:41;102572.66;;;1.89;100.00
60307;BME280;46155;52.364;6.580;2023-01-29T04:17:22;102597.84;;;1.97;100.00
60307;BME280;46155;52.364;6.580;2023-01-29T04:19:48;102599.69;;;1.98;100.00
60307;BME280;46155;52.364;6.580;2023-01-29T04:22:29;102588.59;;;1.92;100.00
60307;BME280;46155;52.364;6.580;2023-01-29T04:24:56;102598.94;;;1.92;100.00
60307;BME280;46155;52.364;6.580;2023-01-29T04:38:29;102602.72;;;2.09;100.00
60307;BME280;46155;52.364;6.580;2023-01-29T04:41:12;102592.72;;;2.12;100.00
60307;BME280;46155;52.364;6.580;2023-01-29T04:43:46;102590.13;;;2.12;100.00
60307;BME280;46155;52.364;6.580;2023-01-29T04:47:03;102587.53;;;2.12;100.00
60307;BME280;46155;52.364;6.580;2023-01-29T04:49:50;102587.00;;;2.14;100.00
60307;BME280;46155;52.364;6.580;2023-01-29T04:52:36;102583.44;;;2.14;100.00
60307;BME280;46155;52.364;6.580;2023-01-29T04:57:51;102589.41;;;2.13;100.00
60307;BME280;46155;52.364;6.580;2023-01-29T05:00:32;102590.84;;;2.11;100.00
60307;BME280;46155;52.364;6.580;2023-01-29T05:03:00;102585.66;;;2.11;100.00
60307;BME280;46155;52.364;6.580;2023-01-29T05:05:26;102587.16;;;2.09;100.00
60307;BME280;46155;52.364;6.580;2023-01-29T05:07:53;102580.47;;;2.03;100.00
60307;BME280;46155;52.364;6.580;2023-01-29T05:10:20;102571.97;;;2.04;100.00
60307;BME280;46155;52.364;6.580;2023-01-29T05:12:50;102574.94;;;2.08;100.00
60307;BME280;46155;52.364;6.580;2023-01-29T05:15:23;102586.75;;;2.05;100.00
60307;BME280;46155;52.364;6.580;2023-01-29T05:17:50;102594.91;;;2.01;100.00
60307;BME280;46155;52.364;6.580;2023-01-29T05:20:18;102588.59;;;1.92;100.00
60307;BME280;46155;52.364;6.580;2023-01-29T05:22:45;102600.63;;;1.99;100.00
60307;BME280;46155;52.364;6.580;2023-01-29T05:25:25;102594.50;;;1.98;100.00
60307;BME280;46155;52.364;6.580;2023-01-29T05:27:51;102592.69;;;1.97;100.00
60307;BME280;46155;52.364;6.580;2023-01-29T05:30:31;102586.00;;;1.92;100.00
60307;BME280;46155;52.364;6.580;2023-01-29T05:32:56;102604.16;;;1.99;100.00
60307;BME280;46155;52.364;6.580;2023-01-29T05:35:22;102618.00;;;2.00;100.00
60307;BME280;46155;52.364;6.580;2023-01-29T05:37:47;102594.69;;;1.93;100.00
60307;BME280;46155;52.364;6.580;2023-01-29T05:40:12;102601.56;;;1.99;100.00
60307;BME280;46155;52.364;6.580;2023-01-29T05:42:37;102596.00;;;1.96;100.00
60307;BME280;46155;52.364;6.580;2023-01-29T05:45:04;102596.00;;;1.96;100.00
60307;BME280;46155;52.364;6.580;2023-01-29T05:47:29;102592.28;;;1.94;100.00
60307;BME280;46155;52.364;6.580;2023-01-29T05:49:55;102583.41;;;1.92;100.00
60307;BME280;46155;52.364;6.580;2023-01-29T05:52:20;102578.56;;;1.88;100.00
60307;BME280;46155;52.364;6.580;2023-01-29T05:54:45;102562.84;;;1.86;100.00
60307;BME280;46155;52.364;6.580;2023-01-29T05:57:10;102570.97;;;1.82;100.00
60307;BME280;46155;52.364;6.580;2023-01-29T05:59:36;102568.19;;;1.81;100.00
60307;BME280;46155;52.364;6.580;2023-01-29T06:02:01;102572.84;;;1.83;100.00
60307;BME280;46155;52.364;6.580;2023-01-29T06:04:26;102570.97;;;1.82;100.00
60307;BME280;46155;52.364;6.580;2023-01-29T06:06:52;102550.41;;;1.77;100.00
60307;BME280;46155;52.364;6.580;2023-01-29T06:09:17;102545.97;;;1.76;100.00
60307;BME280;46155;52.364;6.580;2023-01-29T06:11:42;102555.78;;;1.78;100.00
60307;BME280;46155;52.364;6.580;2023-01-29T06:14:07;102556.91;;;1.80;100.00
60307;BME280;46155;52.364;6.580;2023-01-29T06:16:33;102575.63;;;1.85;100.00
60307;BME280;46155;52.364;6.580;2023-01-29T06:18:58;102575.25;;;1.82;100.00
60307;BME280;46155;52.364;6.580;2023-01-29T06:21:23;102561.53;;;1.83;100.00
60307;BME280;46155;52.364;6.580;2023-01-29T06:23:51;102565.41;;;1.79;100.00
60307;BME280;46155;52.364;6.580;2023-01-29T06:26:17;102558.38;;;1.78;100.00
60307;BME280;46155;52.364;6.580;2023-01-29T06:28:42;102555.22;;;1.74;100.00
60307;BME280;46155;52.364;6.580;2023-01-29T06:31:10;102543.97;;;1.73;100.00
60307;BME280;46155;52.364;6.580;2023-01-29T06:33:35;102547.28;;;1.72;100.00
60307;BME280;46155;52.364;6.580;2023-01-29T06:36:03;102565.59;;;1.74;100.00
60307;BME280;46155;52.364;6.580;2023-01-29T06:38:29;102540.59;;;1.74;100.00
60307;BME280;46155;52.364;6.580;2023-01-29T06:40:56;102528.97;;;1.70;100.00
60307;BME280;46155;52.364;6.580;2023-01-29T06:43:21;102539.16;;;1.76;100.00
60307;BME280;46155;52.364;6.580;2023-01-29T06:45:51;102544.16;;;1.82;100.00
60307;BME280;46155;52.364;6.580;2023-01-29T06:48:17;102539.34;;;1.78;100.00
60307;BME280;46155;52.364;6.580;2023-01-29T06:50:43;102533.97;;;1.76;100.00
60307;BME280;46155;52.364;6.580;2023-01-29T06:53:08;102537.47;;;1.77;100.00
60307;BME280;46155;52.364;6.580;2023-01-29T06:55:33;102536.03;;;1.79;100.00
60307;BME280;46155;52.364;6.580;2023-01-29T06:57:59;102517.84;;;1.71;100.00
60307;BME280;46155;52.364;6.580;2023-01-29T07:00:28;102528.59;;;1.75;100.00
60307;BME280;46155;52.364;6.580;2023-01-29T07:02:54;102540.44;;;1.80;100.00
60307;BME280;46155;52.364;6.580;2023-01-29T07:05:19;102536.38;;;1.75;100.00
60307;BME280;46155;52.364;6.580;2023-01-29T07:07:44;102539.91;;;1.82;100.00
60307;BME280;46155;52.364;6.580;2023-01-29T07:10:10;102544.16;;;1.82;100.00
60307;BME280;46155;52.364;6.580;2023-01-29T07:12:35;102553.41;;;1.87;100.00
60307;BME280;46155;52.364;6.580;2023-01-29T07:15:00;102558.59;;;1.87;100.00
60307;BME280;46155;52.364;6.580;2023-01-29T07:17:25;102559.19;;;1.92;100.00
60307;BME280;46155;52.364;6.580;2023-01-29T07:19:51;102565.09;;;1.91;100.00
60307;BME280;46155;52.364;6.580;2023-01-29T07:22:16;102553.97;;;1.84;100.00
60307;BME280;46155;52.364;6.580;2023-01-29T07:24:41;102557.66;;;1.86;100.00
60307;BME280;46155;52.364;6.580;2023-01-29T07:27:06;102553.97;;;1.84;100.00
60307;BME280;46155;52.364;6.580;2023-01-29T07:29:32;102547.84;;;1.84;100.00
60307;BME280;46155;52.364;6.580;2023-01-29T07:31:57;102528.44;;;1.80;100.00
60307;BME280;46155;52.364;6.580;2023-01-29T07:34:22;102527.84;;;1.76;100.00
60307;BME280;46155;52.364;6.580;2023-01-29T07:36:48;102536.75;;;1.78;100.00
60307;BME280;46155;52.364;6.580;2023-01-29T07:39:13;102524.72;;;1.78;100.00
60307;BME280;46155;52.364;6.580;2023-01-29T07:41:38;102534.34;;;1.79;100.00
60307;BME280;46155;52.364;6.580;2023-01-29T07:44:04;102524.91;;;1.80;100.00
60307;BME280;46155;52.364;6.580;2023-01-29T07:46:29;102526.19;;;1.76;100.00
60307;BME280;46155;52.364;6.580;2023-01-29T07:48:54;102526.56;;;1.72;100.00
60307;BME280;46155;52.364;6.580;2023-01-29T07:51:20;102520.84;;;1.75;100.00
60307;BME280;46155;52.364;6.580;2023-01-29T07:53:45;102526.75;;;1.74;100.00
60307;BME280;46155;52.364;6.580;2023-01-29T07:56:11;102527.84;;;1.76;100.00
60307;BME280;46155;52.364;6.580;2023-01-29T07:58:36;102520.66;;;1.80;100.00
60307;BME280;46155;52.364;6.580;2023-01-29T08:01:06;102522.31;;;1.87;100.00
60307;BME280;46155;52.364;6.580;2023-01-29T08:03:31;102514.00;;;1.82;100.00
60307;BME280;46155;52.364;6.580;2023-01-29T08:05:57;102514.91;;;1.83;100.00
60307;BME280;46155;52.364;6.580;2023-01-29T08:08:22;102516.97;;;1.85;100.00
60307;BME280;46155;52.364;6.580;2023-01-29T08:10:47;102506.25;;;1.89;100.00
60307;BME280;46155;52.364;6.580;2023-01-29T08:13:13;102508.28;;;1.85;100.00
60307;BME280;46155;52.364;6.580;2023-01-29T08:15:41;102487.19;;;1.82;100.00
60307;BME280;46155;52.364;6.580;2023-01-29T08:18:07;102491.06;;;1.85;100.00
60307;BME280;46155;52.364;6.580;2023-01-29T08:20:33;102474.59;;;1.78;100.00
60307;BME280;46155;52.364;6.580;2023-01-29T08:23:03;102484.25;;;1.86;100.00
60307;BME280;46155;52.364;6.580;2023-01-29T08:25:30;102488.66;;;1.87;100.00
60307;BME280;46155;52.364;6.580;2023-01-29T08:27:57;102489.78;;;1.89;100.00
60307;BME280;46155;52.364;6.580;2023-01-29T08:30:24;102492.19;;;1.87;100.00
60307;BME280;46155;52.364;6.580;2023-01-29T08:32:50;102490.34;;;1.94;100.00
60307;BME280;46155;52.364;6.580;2023-01-29T08:35:15;102492.00;;;1.93;100.00
60307;BME280;46155;52.364;6.580;2023-01-29T08:37:40;102494.25;;;1.90;100.00
60307;BME280;46155;52.364;6.580;2023-01-29T08:40:06;102492.94;;;1.94;100.00
60307;BME280;46155;52.364;6.580;2023-01-29T08:42:33;102492.00;;;1.93;100.00
60307;BME280;46155;52.364;6.580;2023-01-29T08:44:58;102486.84;;;2.00;100.00
60307;BME280;46155;52.364;6.580;2023-01-29T08:47:24;102483.53;;;2.01;100.00
60307;BME280;46155;52.364;6.580;2023-01-29T08:49:49;102473.88;;;2.00;100.00
60307;BME280;46155;52.364;6.580;2023-01-29T08:52:14;102477.94;;;2.05;100.00
60307;BME280;46155;52.364;6.580;2023-01-29T08:54:40;102481.31;;;2.04;100.00
60307;BME280;46155;52.364;6.580;2023-01-29T08:57:05;102472.41;;;2.02;100.00
60307;BME280;46155;52.364;6.580;2023-01-29T08:59:31;102486.84;;;2.08;100.00
60307;BME280;46155;52.364;6.580;2023-01-29T09:01:56;102480.16;;;2.10;100.00
60307;BME280;46155;52.364;6.580;2023-01-29T09:04:21;102482.22;;;2.12;100.00
60307;BME280;46155;52.364;6.580;2023-01-29T09:06:47;102482.94;;;2.11;100.00
60307;BME280;46155;52.364;6.580;2023-01-29T09:09:12;102473.53;;;2.12;100.00
60307;BME280;46155;52.364;6.580;2023-01-29T09:11:38;102476.84;;;2.18;99.88
60307;BME280;46155;52.364;6.580;2023-01-29T09:14:04;102461.31;;;2.11;99.62
60307;BME280;46155;52.364;6.580;2023-01-29T09:16:30;102474.44;;;2.12;99.84
60307;BME280;46155;52.364;6.580;2023-01-29T09:18:55;102472.41;;;2.17;99.45
60307;BME280;46155;52.364;6.580;2023-01-29T09:21:21;102479.06;;;2.15;99.34
60307;BME280;46155;52.364;6.580;2023-01-29T09:23:46;102477.97;;;2.20;99.22
60307;BME280;46155;52.364;6.580;2023-01-29T09:26:11;102482.59;;;2.22;99.46
60307;BME280;46155;52.364;6.580;2023-01-29T09:28:37;102482.22;;;2.19;99.41
60307;BME280;46155;52.364;6.580;2023-01-29T09:31:02;102484.63;;;2.18;99.25
60307;BME280;46155;52.364;6.580;2023-01-29T09:33:28;102479.81;;;2.21;99.37
60307;BME280;46155;52.364;6.580;2023-01-29T09:35:53;102487.22;;;2.18;98.81
60307;BME280;46155;52.364;6.580;2023-01-29T09:38:19;102493.91;;;2.16;98.97
60307;BME280;46155;52.364;6.580;2023-01-29T09:41:04;102482.41;;;2.21;99.10
60307;BME280;46155;52.364;6.580;2023-01-29T09:48:41;102482.81;;;2.24;98.70
60307;BME280;46155;52.364;6.580;2023-01-29T09:51:22;102470.75;;;2.24;99.20
60307;BME280;46155;52.364;6.580;2023-01-29T09:54:00;102471.31;;;2.22;99.13
60307;BME280;46155;52.364;6.580;2023-01-29T09:56:29;102476.84;;;2.25;98.75
60307;BME280;46155;52.364;6.580;2023-01-29T09:58:57;102477.22;;;2.28;99.50
60307;BME280;46155;52.364;6.580;2023-01-29T10:01:54;102467.03;;;2.44;98.82
60307;BME280;46155;52.364;6.580;2023-01-29T10:25:32;102422.44;;;2.47;97.62
60307;BME280;46155;52.364;6.580;2023-01-29T10:28:00;102425.00;;;2.54;96.80
60307;BME280;46155;52.364;6.580;2023-01-29T10:30:35;102422.59;;;2.55;97.12
60307;BME280;46155;52.364;6.580;2023-01-29T10:33:04;102422.94;;;2.58;97.52
60307;BME280;46155;52.364;6.580;2023-01-29T10:35:37;102417.19;;;2.61;97.43
60307;BME280;46155;52.364;6.580;2023-01-29T10:38:20;102415.00;;;2.57;97.18
60307;BME280;46155;52.364;6.580;2023-01-29T10:41:13;102407.94;;;2.56;97.28
60307;BME280;46155;52.364;6.580;2023-01-29T10:51:34;102396.81;;;2.64;97.62
60307;BME280;46155;52.364;6.580;2023-01-29T10:56:53;102391.06;;;2.67;97.16
60307;BME280;46155;52.364;6.580;2023-01-29T10:59:46;102392.34;;;2.70;97.40
60307;BME280;46155;52.364;6.580;2023-01-29T11:02:18;102386.03;;;2.75;97.12
60307;BME280;46155;52.364;6.580;2023-01-29T11:04:45;102379.53;;;2.79;97.16
60307;BME280;46155;52.364;6.580;2023-01-29T11:07:12;102376.72;;;2.85;97.55
60307;BME280;46155;52.364;6.580;2023-01-29T11:12:12;102367.63;;;2.88;97.33
60307;BME280;46155;52.364;6.580;2023-01-29T11:14:49;102355.59;;;2.89;97.24
60307;BME280;46155;52.364;6.580;2023-01-29T11:17:18;102358.91;;;2.95;97.17
60307;BME280;46155;52.364;6.580;2023-01-29T11:19:46;102357.75;;;3.00;96.58
60307;BME280;46155;52.364;6.580;2023-01-29T11:22:15;102357.75;;;3.00;95.39
60307;BME280;46155;52.364;6.580;2023-01-29T11:24:41;102345.34;;;2.98;95.40
60307;BME280;46155;52.364;6.580;2023-01-29T11:27:21;102338.88;;;2.94;95.76
60307;BME280;46155;52.364;6.580;2023-01-29T11:29:48;102343.16;;;2.93;96.00
60307;BME280;46155;52.364;6.580;2023-01-29T11:32:34;102338.84;;;3.01;96.19
60307;BME280;46155;52.364;6.580;2023-01-29T11:35:05;102344.44;;;2.97;95.89
60307;BME280;46155;52.364;6.580;2023-01-29T11:37:44;102339.97;;;2.96;95.48
60307;BME280;46155;52.364;6.580;2023-01-29T11:42:45;102329.06;;;2.91;96.45
60307;BME280;46155;52.364;6.580;2023-01-29T11:45:26;102324.59;;;2.98;96.80
60307;BME280;46155;52.364;6.580;2023-01-29T11:47:55;102325.19;;;2.95;95.91
60307;BME280;46155;52.364;6.580;2023-01-29T11:50:31;102317.03;;;2.92;96.01
60307;BME280;46155;52.364;6.580;2023-01-29T11:52:58;102316.47;;;2.95;95.57
60307;BME280;46155;52.364;6.580;2023-01-29T11:55:26;102294.44;;;2.91;95.67
60307;BME280;46155;52.364;6.580;2023-01-29T11:58:00;102298.84;;;2.99;96.42
60307;BME280;46155;52.364;6.580;2023-01-29T12:00:31;102300.84;;;3.02;96.45
60307;BME280;46155;52.364;6.580;2023-01-29T12:03:15;102285.16;;;2.93;96.40
60307;BME280;46155;52.364;6.580;2023-01-29T12:05:53;102285.88;;;2.99;96.36
60307;BME280;46155;52.364;6.580;2023-01-29T12:08:22;102281.19;;;3.04;95.33
60307;BME280;46155;52.364;6.580;2023-01-29T12:10:48;102281.94;;;3.03;95.82
60307;BME280;46155;52.364;6.580;2023-01-29T12:15:46;102262.16;;;2.96;96.40
60307;BME280;46155;52.364;6.580;2023-01-29T12:18:29;102270.09;;;2.98;96.62
60307;BME280;46155;52.364;6.580;2023-01-29T12:21:29;102266.56;;;3.04;96.65
60307;BME280;46155;52.364;6.580;2023-01-29T12:24:13;102257.34;;;2.99;96.85
60307;BME280;46155;52.364;6.580;2023-01-29T12:26:46;102250.28;;;2.98;96.59
60307;BME280;46155;52.364;6.580;2023-01-29T12:29:45;102251.38;;;3.00;97.10
60307;BME280;46155;52.364;6.580;2023-01-29T12:34:53;102242.13;;;3.02;97.50
60307;BME280;46155;52.364;6.580;2023-01-29T12:37:24;102235.81;;;3.00;97.73
60307;BME280;46155;52.364;6.580;2023-01-29T12:39:53;102222.16;;;2.94;98.37
60307;BME280;46155;52.364;6.580;2023-01-29T12:42:20;102230.09;;;2.96;99.28
60307;BME280;46155;52.364;6.580;2023-01-29T12:44:56;102211.66;;;3.08;100.00
60307;BME280;46155;52.364;6.580;2023-01-29T12:47:34;102219.00;;;3.20;98.87
60307;BME280;46155;52.364;6.580;2023-01-29T12:50:06;102207.75;;;3.12;99.17
60307;BME280;46155;52.364;6.580;2023-01-29T12:52:41;102211.84;;;3.10;99.58
60307;BME280;46155;52.364;6.580;2023-01-29T12:55:12;102204.28;;;3.04;100.00
60307;BME280;46155;52.364;6.580;2023-01-29T12:57:59;102210.19;;;3.10;100.00
60307;BME280;46155;52.364;6.580;2023-01-29T13:00:33;102200.88;;;3.13;100.00
60307;BME280;46155;52.364;6.580;2023-01-29T13:05:56;102176.84;;;3.06;100.00
60307;BME280;46155;52.364;6.580;2023-01-29T13:08:26;102180.53;;;3.08;100.00
60307;BME280;46155;52.364;6.580;2023-01-29T13:10:57;102179.94;;;3.11;100.00
60307;BME280;46155;52.364;6.580;2023-01-29T13:16:16;102159.78;;;3.08;100.00
60307;BME280;46155;52.364;6.580;2023-01-29T13:18:49;102145.53;;;3.05;100.00
60307;BME280;46155;52.364;6.580;2023-01-29T13:21:21;102154.56;;;3.08;100.00
60307;BME280;46155;52.364;6.580;2023-01-29T13:23:49;102156.78;;;3.13;100.00
60307;BME280;46155;52.364;6.580;2023-01-29T13:26:19;102142.66;;;3.18;100.00
60307;BME280;46155;52.364;6.580;2023-01-29T13:28:46;102142.09;;;3.13;100.00
60307;BME280;46155;52.364;6.580;2023-01-29T13:34:14;102125.63;;;3.13;100.00
60307;BME280;46155;52.364;6.580;2023-01-29T13:36:43;102123.88;;;3.20;100.00
60307;BME280;46155;52.364;6.580;2023-01-29T13:39:51;102124.13;;;3.15;100.00
60307;BME280;46155;52.364;6.580;2023-01-29T13:42:21;102118.19;;;3.16;100.00
60307;BME280;46155;52.364;6.580;2023-01-29T13:44:49;102117.44;;;3.17;100.00
60307;BME280;46155;52.364;6.580;2023-01-29T13:47:27;102115.59;;;3.16;100.00
60307;BME280;46155;52.364;6.580;2023-01-29T13:49:56;102111.56;;;3.10;100.00
60307;BME280;46155;52.364;6.580;2023-01-29T13:52:36;102113.00;;;3.16;100.00
60307;BME280;46155;52.364;6.580;2023-01-29T14:08:00;102094.66;;;3.14;100.00
60307;BME280;46155;52.364;6.580;2023-01-29T14:10:27;102096.09;;;3.19;100.00
60307;BME280;46155;52.364;6.580;2023-01-29T14:18:24;102091.91;;;3.13;100.00
60307;BME280;46155;52.364;6.580;2023-01-29T14:20:54;102080.44;;;3.10;100.00
60307;BME280;46155;52.364;6.580;2023-01-29T14:25:52;102087.44;;;3.12;100.00
60307;BME280;46155;52.364;6.580;2023-01-29T14:28:38;102068.22;;;3.09;100.00
60307;BME280;46155;52.364;6.580;2023-01-29T14:31:04;102058.16;;;3.13;100.00
60307;BME280;46155;52.364;6.580;2023-01-29T14:33:39;102049.81;;;3.15;100.00
60307;BME280;46155;52.364;6.580;2023-01-29T14:36:09;102052.06;;;3.28;100.00
60307;BME280;46155;52.364;6.580;2023-01-29T14:38:36;102047.78;;;3.28;100.00
60307;BME280;46155;52.364;6.580;2023-01-29T14:41:11;102058.34;;;3.30;100.00
60307;BME280;46155;52.364;6.580;2023-01-29T14:43:38;102062.94;;;3.33;100.00
60307;BME280;46155;52.364;6.580;2023-01-29T14:46:41;102052.81;;;3.27;100.00
60307;BME280;46155;52.364;6.580;2023-01-29T14:49:07;102054.91;;;3.38;100.00
60307;BME280;46155;52.364;6.580;2023-01-29T14:51:35;102060.84;;;3.37;100.00
60307;BME280;46155;52.364;6.580;2023-01-29T14:54:24;102051.66;;;3.32;100.00
60307;BME280;46155;52.364;6.580;2023-01-29T14:57:00;102049.47;;;3.28;100.00
60307;BME280;46155;52.364;6.580;2023-01-29T14:59:34;102046.72;;;3.26;100.00
60307;BME280;46155;52.364;6.580;2023-01-29T15:02:25;102044.19;;;3.19;100.00
60307;BME280;46155;52.364;6.580;2023-01-29T15:04:58;102037.00;;;3.17;100.00
60307;BME280;46155;52.364;6.580;2023-01-29T15:07:29;102042.94;;;3.16;100.00
60307;BME280;46155;52.364;6.580;2023-01-29T15:10:07;102037.06;;;3.09;100.00
60307;BME280;46155;52.364;6.580;2023-01-29T15:12:48;102018.91;;;3.09;100.00
60307;BME280;46155;52.364;6.580;2023-01-29T15:15:31;102028.53;;;3.10;100.00
60307;BME280;46155;52.364;6.580;2023-01-29T15:18:13;102009.28;;;3.08;100.00
60307;BME280;46155;52.364;6.580;2023-01-29T15:20:41;102018.34;;;3.12;100.00
60307;BME280;46155;52.364;6.580;2023-01-29T15:23:27;102005.59;;;3.06;100.00
60307;BME280;46155;52.364;6.580;2023-01-29T15:25:55;102016.47;;;3.11;100.00
60307;BME280;46155;52.364;6.580;2023-01-29T15:28:22;102015.50;;;3.18;100.00
60307;BME280;46155;52.364;6.580;2023-01-29T15:30:56;102009.03;;;3.14;100.00
60307;BME280;46155;52.364;6.580;2023-01-29T15:33:21;102002.59;;;3.10;100.00
60307;BME280;46155;52.364;6.580;2023-01-29T15:35:47;102005.69;;;3.15;100.00
60307;BME280;46155;52.364;6.580;2023-01-29T15:38:21;102002.94;;;3.14;100.00
60307;BME280;46155;52.364;6.580;2023-01-29T15:43:27;102001.72;;;3.19;100.00
60307;BME280;46155;52.364;6.580;2023-01-29T15:45:55;102003.50;;;3.11;100.00
60307;BME280;46155;52.364;6.580;2023-01-29T15:48:34;101988.19;;;3.05;100.00
60307;BME280;46155;52.364;6.580;2023-01-29T15:51:01;102002.59;;;3.10;100.00
60307;BME280;46155;52.364;6.580;2023-01-29T15:53:42;101998.56;;;3.05;100.00
60307;BME280;46155;52.364;6.580;2023-01-29T15:56:11;101998.56;;;3.05;100.00
60307;BME280;46155;52.364;6.580;2023-01-29T15:58:40;101987.03;;;3.10;100.00
60307;BME280;46155;52.364;6.580;2023-01-29T16:01:07;101990.94;;;3.07;100.00
60307;BME280;46155;52.364;6.580;2023-01-29T16:03:33;101992.63;;;3.06;100.00
60307;BME280;46155;52.364;6.580;2023-01-29T16:05:59;101973.78;;;3.00;100.00
60307;BME280;46155;52.364;6.580;2023-01-29T16:08:25;101977.81;;;3.05;100.00
60307;BME280;46155;52.364;6.580;2023-01-29T16:10:54;101966.84;;;3.08;100.00
60307;BME280;46155;52.364;6.580;2023-01-29T16:13:23;101974.06;;;3.10;100.00
60307;BME280;46155;52.364;6.580;2023-01-29T16:16:01;101976.81;;;3.12;100.00
60307;BME280;46155;52.364;6.580;2023-01-29T16:18:29;101983.66;;;3.12;100.00
60307;BME280;46155;52.364;6.580;2023-01-29T16:20:57;101978.47;;;3.12;100.00
60307;BME280;46155;52.364;6.580;2023-01-29T16:23:27;101976.66;;;3.10;100.00
60307;BME280;46155;52.364;6.580;2023-01-29T16:25:56;101967.19;;;3.11;100.00
60307;BME280;46155;52.364;6.580;2023-01-29T16:28:25;101968.34;;;3.06;100.00
60307;BME280;46155;52.364;6.580;2023-01-29T16:30:56;101967.00;;;3.09;100.00
60307;BME280;46155;52.364;6.580;2023-01-29T16:33:31;101962.56;;;3.08;100.00
60307;BME280;46155;52.364;6.580;2023-01-29T16:35:58;101946.59;;;2.97;100.00
60307;BME280;46155;52.364;6.580;2023-01-29T16:38:32;101951.84;;;3.05;100.00
60307;BME280;46155;52.364;6.580;2023-01-29T16:41:12;101942.31;;;2.97;100.00
60307;BME280;46155;52.364;6.580;2023-01-29T16:43:47;101961.50;;;3.06;100.00
60307;BME280;46155;52.364;6.580;2023-01-29T16:46:51;101944.31;;;3.00;100.00
60307;BME280;46155;52.364;6.580;2023-01-29T16:51:50;101948.44;;;3.14;100.00
60307;BME280;46155;52.364;6.580;2023-01-29T16:54:15;101947.25;;;3.19;100.00
60307;BME280;46155;52.364;6.580;2023-01-29T16:56:47;101932.59;;;3.03;100.00
60307;BME280;46155;52.364;6.580;2023-01-29T16:59:31;101940.66;;;3.14;100.00
60307;BME280;46155;52.364;6.580;2023-01-29T17:01:58;101939.13;;;3.16;100.00
60307;BME280;46155;52.364;6.580;2023-01-29T17:04:23;101943.81;;;3.11;100.00
60307;BME280;46155;52.364;6.580;2023-01-29T17:06:55;101938.22;;;2.99;100.00
60307;BME280;46155;52.364;6.580;2023-01-29T17:09:33;101938.97;;;2.98;100.00
60307;BME280;46155;52.364;6.580;2023-01-29T17:12:01;101935.63;;;2.99;100.00
60307;BME280;46155;52.364;6.580;2023-01-29T17:14:30;101928.19;;;3.02;100.00
60307;BME280;46155;52.364;6.580;2023-01-29T17:17:11;101923.75;;;3.01;100.00
60307;BME280;46155;52.364;6.580;2023-01-29T17:19:38;101927.41;;;3.03;100.00
60307;BME280;46155;52.364;6.580;2023-01-29T17:22:03;101918.22;;;2.98;100.00
60307;BME280;46155;52.364;6.580;2023-01-29T17:24:32;101924.00;;;2.96;100.00
60307;BME280;46155;52.364;6.580;2023-01-29T17:26:59;101922.47;;;2.98;100.00
60307;BME280;46155;52.364;6.580;2023-01-29T17:29:28;101917.53;;;2.92;100.00
60307;BME280;46155;52.364;6.580;2023-01-29T17:31:54;101905.91;;;2.88;100.00
60307;BME280;46155;52.364;6.580;2023-01-29T17:34:20;101916.13;;;2.87;100.00
60307;BME280;46155;52.364;6.580;2023-01-29T17:36:45;101922.47;;;2.82;100.00
60307;BME280;46155;52.364;6.580;2023-01-29T17:39:21;101911.59;;;2.77;100.00
60307;BME280;46155;52.364;6.580;2023-01-29T17:41:54;101903.16;;;2.87;100.00
60307;BME280;46155;52.364;6.580;2023-01-29T17:44:20;101911.94;;;2.80;100.00
60307;BME280;46155;52.364;6.580;2023-01-29T17:46:46;101898.97;;;2.80;100.00
60307;BME280;46155;52.364;6.580;2023-01-29T17:49:26;101893.78;;;2.80;100.00
60307;BME280;46155;52.364;6.580;2023-01-29T17:51:53;101892.78;;;2.87;100.00
60307;BME280;46155;52.364;6.580;2023-01-29T17:54:19;101886.59;;;2.78;100.00
60307;BME280;46155;52.364;6.580;2023-01-29T17:56:45;101886.16;;;2.82;100.00
60307;BME280;46155;52.364;6.580;2023-01-29T18:01:40;101882.41;;;2.87;100.00
60307;BME280;46155;52.364;6.580;2023-01-29T18:04:06;101879.91;;;2.80;100.00
60307;BME280;46155;52.364;6.580;2023-01-29T18:06:32;101861.44;;;2.77;100.00
60307;BME280;46155;52.364;6.580;2023-01-29T18:08:57;101849.13;;;2.83;100.00
60307;BME280;46155;52.364;6.580;2023-01-29T18:11:23;101847.00;;;2.87;100.00
60307;BME280;46155;52.364;6.580;2023-01-29T18:13:48;101844.00;;;2.91;100.00
60307;BME280;46155;52.364;6.580;2023-01-29T18:16:13;101849.50;;;2.95;100.00
60307;BME280;46155;52.364;6.580;2023-01-29T18:18:39;101852.53;;;2.90;100.00
60307;BME280;46155;52.364;6.580;2023-01-29T18:21:04;101852.25;;;2.96;100.00
60307;BME280;46155;52.364;6.580;2023-01-29T18:23:30;101838.06;;;2.92;100.00
60307;BME280;46155;52.364;6.580;2023-01-29T18:25:55;101839.72;;;2.92;100.00
60307;BME280;46155;52.364;6.580;2023-01-29T18:28:22;101832.63;;;2.98;100.00
60307;BME280;46155;52.364;6.580;2023-01-29T18:30:47;101836.28;;;3.00;100.00
60307;BME280;46155;52.364;6.580;2023-01-29T18:33:13;101822.56;;;3.01;100.00
60307;BME280;46155;52.364;6.580;2023-01-29T18:35:39;101829.91;;;3.05;100.00
60307;BME280;46155;52.364;6.580;2023-01-29T18:38:04;101819.38;;;3.04;100.00
60307;BME280;46155;52.364;6.580;2023-01-29T18:40:30;101806.25;;;3.02;100.00
60307;BME280;46155;52.364;6.580;2023-01-29T18:42:56;101813.25;;;3.03;100.00
60307;BME280;46155;52.364;6.580;2023-01-29T18:45:23;101821.66;;;3.01;100.00
60307;BME280;46155;52.364;6.580;2023-01-29T18:47:49;101811.75;;;3.05;100.00